sensor_id;sensor_type;location;lat;lon;timestamp;pressure;altitude;pressure_sealevel;temperature;humidity
72677;BME280;60755;51.374;10.662;2023-04-08T00:01:06;97576.06;;;4.35;88.92
72677;BME280;60755;51.374;10.662;2023-04-08T00:03:34;97576.44;;;4.32;89.35
72677;BME280;60755;51.374;10.662;2023-04-08T00:06:02;97572.59;;;4.28;90.15
72677;BME280;60755;51.374;10.662;2023-04-08T00:08:29;97582.56;;;4.25;91.00
72677;BME280;60755;51.374;10.662;2023-04-08T00:10:56;97573.34;;;4.22;91.97
72677;BME280;60755;51.374;10.662;2023-04-08T00:13:25;97578.81;;;4.27;91.38
72677;BME280;60755;51.374;10.662;2023-04-08T00:15:52;97576.38;;;4.26;91.92
72677;BME280;60755;51.374;10.662;2023-04-08T00:18:19;97576.94;;;4.21;92.43
72677;BME280;60755;51.374;10.662;2023-04-08T00:20:48;97583.66;;;4.15;92.96
72677;BME280;60755;51.374;10.662;2023-04-08T00:23:15;97571.59;;;4.08;94.00
72677;BME280;60755;51.374;10.662;2023-04-08T00:25:42;97576.78;;;4.08;93.72
72677;BME280;60755;51.374;10.662;2023-04-08T00:28:10;97569.63;;;4.10;92.69
72677;BME280;60755;51.374;10.662;2023-04-08T00:30:37;97576.25;;;4.12;92.99
72677;BME280;60755;51.374;10.662;2023-04-08T00:33:04;97572.47;;;4.15;92.40
72677;BME280;60755;51.374;10.662;2023-04-08T00:35:31;97579.13;;;4.17;92.78
72677;BME280;60755;51.374;10.662;2023-04-08T00:38:00;97575.59;;;4.25;92.89
72677;BME280;60755;51.374;10.662;2023-04-08T00:40:28;97579.28;;;4.16;93.37
72677;BME280;60755;51.374;10.662;2023-04-08T00:42:55;97572.16;;;4.25;93.56
72677;BME280;60755;51.374;10.662;2023-04-08T00:45:23;97578.13;;;4.18;94.55
72677;BME280;60755;51.374;10.662;2023-04-08T00:47:50;97571.00;;;4.27;93.15
72677;BME280;60755;51.374;10.662;2023-04-08T00:50:17;97574.06;;;4.37;93.94
72677;BME280;60755;51.374;10.662;2023-04-08T00:52:45;97579.59;;;4.28;93.68
72677;BME280;60755;51.374;10.662;2023-04-08T00:55:13;97583.25;;;4.33;93.64
72677;BME280;60755;51.374;10.662;2023-04-08T00:57:41;97581.75;;;4.24;95.31
72677;BME280;60755;51.374;10.662;2023-04-08T01:00:10;97581.81;;;4.31;95.75
72677;BME280;60755;51.374;10.662;2023-04-08T01:02:41;97578.66;;;4.14;96.32
72677;BME280;60755;51.374;10.662;2023-04-08T01:05:14;97584.47;;;4.16;96.27
72677;BME280;60755;51.374;10.662;2023-04-08T01:07:45;97578.53;;;4.22;96.45
72677;BME280;60755;51.374;10.662;2023-04-08T01:10:17;97583.72;;;4.01;98.81
72677;BME280;60755;51.374;10.662;2023-04-08T01:12:49;97586.06;;;4.17;97.82
72677;BME280;60755;51.374;10.662;2023-04-08T01:15:18;97587.41;;;3.91;99.09
72677;BME280;60755;51.374;10.662;2023-04-08T01:17:46;97585.47;;;3.93;100.00
72677;BME280;60755;51.374;10.662;2023-04-08T01:20:14;97582.38;;;4.05;98.93
72677;BME280;60755;51.374;10.662;2023-04-08T01:22:59;97588.19;;;4.07;98.90
72677;BME280;60755;51.374;10.662;2023-04-08T01:25:32;97580.19;;;3.87;99.92
72677;BME280;60755;51.374;10.662;2023-04-08T01:28:04;97579.16;;;4.03;99.64
72677;BME280;60755;51.374;10.662;2023-04-08T01:30:32;97590.22;;;3.90;99.16
72677;BME280;60755;51.374;10.662;2023-04-08T01:33:01;97588.91;;;3.79;100.00
72677;BME280;60755;51.374;10.662;2023-04-08T01:35:30;97582.97;;;3.85;100.00
72677;BME280;60755;51.374;10.662;2023-04-08T01:37:58;97587.06;;;3.95;100.00
72677;BME280;60755;51.374;10.662;2023-04-08T01:40:27;97582.75;;;4.02;99.77
72677;BME280;60755;51.374;10.662;2023-04-08T01:42:56;97580.88;;;3.96;100.00
72677;BME280;60755;51.374;10.662;2023-04-08T01:45:25;97578.91;;;3.98;100.00
72677;BME280;60755;51.374;10.662;2023-04-08T01:47:52;97585.13;;;3.82;100.00
72677;BME280;60755;51.374;10.662;2023-04-08T01:50:20;97579.00;;;3.89;100.00
72677;BME280;60755;51.374;10.662;2023-04-08T01:52:48;97583.69;;;3.79;100.00
72677;BME280;60755;51.374;10.662;2023-04-08T01:55:19;97578.03;;;3.76;100.00
72677;BME280;60755;51.374;10.662;2023-04-08T01:57:48;97589.78;;;3.86;100.00
72677;BME280;60755;51.374;10.662;2023-04-08T02:00:19;97583.19;;;3.69;100.00
72677;BME280;60755;51.374;10.662;2023-04-08T02:02:48;97582.19;;;3.70;100.00
72677;BME280;60755;51.374;10.662;2023-04-08T02:05:17;97573.88;;;3.60;100.00
72677;BME280;60755;51.374;10.662;2023-04-08T02:07:46;97565.44;;;3.58;100.00
72677;BME280;60755;51.374;10.662;2023-04-08T02:10:13;97569.13;;;3.63;100.00
72677;BME280;60755;51.374;10.662;2023-04-08T02:12:41;97580.94;;;3.66;100.00
72677;BME280;60755;51.374;10.662;2023-04-08T02:15:10;97580.50;;;3.77;100.00
72677;BME280;60755;51.374;10.662;2023-04-08T02:17:42;97564.63;;;3.72;100.00
72677;BME280;60755;51.374;10.662;2023-04-08T02:20:15;97569.75;;;3.65;100.00
72677;BME280;60755;51.374;10.662;2023-04-08T02:22:47;97575.56;;;3.68;100.00
72677;BME280;60755;51.374;10.662;2023-04-08T02:25:16;97571.16;;;3.68;100.00
72677;BME280;60755;51.374;10.662;2023-04-08T02:27:48;97572.16;;;3.67;100.00
72677;BME280;60755;51.374;10.662;2023-04-08T02:30:16;97576.00;;;3.71;100.00
72677;BME280;60755;51.374;10.662;2023-04-08T02:32:45;97577.63;;;3.72;100.00
72677;BME280;60755;51.374;10.662;2023-04-08T02:35:14;97573.91;;;3.81;99.79
72677;BME280;60755;51.374;10.662;2023-04-08T02:37:44;97566.22;;;3.73;100.00
72677;BME280;60755;51.374;10.662;2023-04-08T02:40:24;97574.41;;;3.70;100.00
72677;BME280;60755;51.374;10.662;2023-04-08T02:42:52;97571.16;;;3.68;100.00
72677;BME280;60755;51.374;10.662;2023-04-08T02:45:19;97566.72;;;3.62;100.00
72677;BME280;60755;51.374;10.662;2023-04-08T02:47:49;97581.28;;;3.78;100.00
72677;BME280;60755;51.374;10.662;2023-04-08T02:50:17;97587.75;;;3.67;100.00
72677;BME280;60755;51.374;10.662;2023-04-08T02:52:45;97588.31;;;3.62;100.00
72677;BME280;60755;51.374;10.662;2023-04-08T02:55:12;97591.00;;;3.54;100.00
72677;BME280;60755;51.374;10.662;2023-04-08T02:57:41;97594.66;;;3.60;100.00
72677;BME280;60755;51.374;10.662;2023-04-08T03:00:09;97597.94;;;3.69;100.00
72677;BME280;60755;51.374;10.662;2023-04-08T03:02:36;97600.22;;;3.57;100.00
72677;BME280;60755;51.374;10.662;2023-04-08T03:05:04;97597.81;;;3.55;99.66
72677;BME280;60755;51.374;10.662;2023-04-08T03:07:33;97591.00;;;3.54;100.00
72677;BME280;60755;51.374;10.662;2023-04-08T03:10:01;97593.75;;;3.53;100.00
72677;BME280;60755;51.374;10.662;2023-04-08T03:12:28;97593.22;;;3.57;100.00
72677;BME280;60755;51.374;10.662;2023-04-08T03:14:56;97590.44;;;3.59;99.85
72677;BME280;60755;51.374;10.662;2023-04-08T03:17:23;97599.84;;;3.60;99.35
72677;BME280;60755;51.374;10.662;2023-04-08T03:19:50;97599.41;;;3.56;99.73
72677;BME280;60755;51.374;10.662;2023-04-08T03:22:18;97605.03;;;3.60;99.26
72677;BME280;60755;51.374;10.662;2023-04-08T03:24:47;97606.75;;;3.68;100.00
72677;BME280;60755;51.374;10.662;2023-04-08T03:27:14;97599.50;;;3.63;99.64
72677;BME280;60755;51.374;10.662;2023-04-08T03:29:41;97598.69;;;3.62;99.01
72677;BME280;60755;51.374;10.662;2023-04-08T03:32:10;97603.00;;;3.70;98.59
72677;BME280;60755;51.374;10.662;2023-04-08T03:34:37;97604.25;;;3.59;99.37
72677;BME280;60755;51.374;10.662;2023-04-08T03:37:05;97605.78;;;3.54;98.62
72677;BME280;60755;51.374;10.662;2023-04-08T03:39:32;97603.81;;;3.56;100.00
72677;BME280;60755;51.374;10.662;2023-04-08T03:42:01;97605.94;;;3.52;100.00
72677;BME280;60755;51.374;10.662;2023-04-08T03:44:28;97603.72;;;3.64;98.81
72677;BME280;60755;51.374;10.662;2023-04-08T03:46:56;97602.00;;;3.71;100.00
72677;BME280;60755;51.374;10.662;2023-04-08T03:49:23;97608.00;;;3.57;99.48
72677;BME280;60755;51.374;10.662;2023-04-08T03:51:50;97596.00;;;3.56;99.96
72677;BME280;60755;51.374;10.662;2023-04-08T03:54:17;97596.13;;;3.48;98.24
72677;BME280;60755;51.374;10.662;2023-04-08T03:56:44;97604.81;;;3.55;98.19
72677;BME280;60755;51.374;10.662;2023-04-08T03:59:13;97600.75;;;3.52;98.71
72677;BME280;60755;51.374;10.662;2023-04-08T04:01:40;97606.31;;;3.64;99.75
72677;BME280;60755;51.374;10.662;2023-04-08T04:04:07;97609.91;;;3.63;98.26
72677;BME280;60755;51.374;10.662;2023-04-08T04:06:35;97613.81;;;3.59;97.23
72677;BME280;60755;51.374;10.662;2023-04-08T04:09:02;97610.19;;;3.53;98.24
72677;BME280;60755;51.374;10.662;2023-04-08T04:11:29;97618.94;;;3.52;97.63
72677;BME280;60755;51.374;10.662;2023-04-08T04:13:57;97616.09;;;3.47;97.56
72677;BME280;60755;51.374;10.662;2023-04-08T04:16:25;97613.69;;;3.46;99.87
72677;BME280;60755;51.374;10.662;2023-04-08T04:18:52;97624.06;;;3.46;99.84
72677;BME280;60755;51.374;10.662;2023-04-08T04:21:20;97625.22;;;3.43;99.58
72677;BME280;60755;51.374;10.662;2023-04-08T04:23:47;97623.19;;;3.53;100.00
72677;BME280;60755;51.374;10.662;2023-04-08T04:26:14;97624.41;;;3.57;100.00
72677;BME280;60755;51.374;10.662;2023-04-08T04:28:41;97623.50;;;3.50;100.00
72677;BME280;60755;51.374;10.662;2023-04-08T04:31:17;97631.22;;;3.44;100.00
72677;BME280;60755;51.374;10.662;2023-04-08T04:33:45;97624.94;;;3.53;100.00
72677;BME280;60755;51.374;10.662;2023-04-08T04:36:13;97631.41;;;3.57;100.00
72677;BME280;60755;51.374;10.662;2023-04-08T04:38:40;97638.56;;;3.55;100.00
72677;BME280;60755;51.374;10.662;2023-04-08T04:41:09;97645.38;;;3.56;100.00
72677;BME280;60755;51.374;10.662;2023-04-08T04:43:36;97645.91;;;3.51;100.00
72677;BME280;60755;51.374;10.662;2023-04-08T04:46:03;97640.38;;;3.54;100.00
72677;BME280;60755;51.374;10.662;2023-04-08T04:48:33;97641.16;;;3.55;100.00
72677;BME280;60755;51.374;10.662;2023-04-08T04:51:02;97641.78;;;3.57;100.00
72677;BME280;60755;51.374;10.662;2023-04-08T04:53:30;97647.34;;;3.54;100.00
72677;BME280;60755;51.374;10.662;2023-04-08T04:55:57;97649.06;;;3.61;100.00
72677;BME280;60755;51.374;10.662;2023-04-08T04:58:26;97648.88;;;3.63;100.00
72677;BME280;60755;51.374;10.662;2023-04-08T05:00:54;97649.22;;;3.60;100.00
72677;BME280;60755;51.374;10.662;2023-04-08T05:03:21;97647.34;;;3.54;100.00
72677;BME280;60755;51.374;10.662;2023-04-08T05:05:52;97644.09;;;3.52;100.00
72677;BME280;60755;51.374;10.662;2023-04-08T05:08:21;97654.41;;;3.60;100.00
72677;BME280;60755;51.374;10.662;2023-04-08T05:10:48;97644.03;;;3.60;100.00
72677;BME280;60755;51.374;10.662;2023-04-08T05:13:16;97651.91;;;3.52;100.00
72677;BME280;60755;51.374;10.662;2023-04-08T05:15:43;97649.31;;;3.52;100.00
72677;BME280;60755;51.374;10.662;2023-04-08T05:18:11;97654.06;;;3.63;100.00
72677;BME280;60755;51.374;10.662;2023-04-08T05:20:38;97653.19;;;3.56;100.00
72677;BME280;60755;51.374;10.662;2023-04-08T05:23:05;97656.13;;;3.53;100.00
72677;BME280;60755;51.374;10.662;2023-04-08T05:25:34;97650.56;;;3.56;100.00
72677;BME280;60755;51.374;10.662;2023-04-08T05:28:02;97662.22;;;3.60;100.00
72677;BME280;60755;51.374;10.662;2023-04-08T05:30:29;97661.41;;;3.59;100.00
72677;BME280;60755;51.374;10.662;2023-04-08T05:32:56;97654.59;;;3.58;100.00
72677;BME280;60755;51.374;10.662;2023-04-08T05:35:24;97662.03;;;3.76;100.00
72677;BME280;60755;51.374;10.662;2023-04-08T05:37:51;97664.47;;;3.63;100.00
72677;BME280;60755;51.374;10.662;2023-04-08T05:40:18;97672.16;;;3.56;100.00
72677;BME280;60755;51.374;10.662;2023-04-08T05:42:47;97672.88;;;3.80;100.00
72677;BME280;60755;51.374;10.662;2023-04-08T05:45:14;97679.44;;;3.61;100.00
72677;BME280;60755;51.374;10.662;2023-04-08T05:47:42;97684.25;;;3.64;100.00
72677;BME280;60755;51.374;10.662;2023-04-08T05:50:10;97680.59;;;3.73;100.00
72677;BME280;60755;51.374;10.662;2023-04-08T05:52:41;97682.09;;;3.82;100.00
72677;BME280;60755;51.374;10.662;2023-04-08T05:55:09;97685.31;;;3.84;100.00
72677;BME280;60755;51.374;10.662;2023-04-08T05:57:36;97690.78;;;4.04;100.00
72677;BME280;60755;51.374;10.662;2023-04-08T06:00:06;97691.19;;;4.08;100.00
72677;BME280;60755;51.374;10.662;2023-04-08T06:02:36;97692.47;;;4.12;100.00
72677;BME280;60755;51.374;10.662;2023-04-08T06:05:04;97688.78;;;4.06;100.00
72677;BME280;60755;51.374;10.662;2023-04-08T06:07:32;97693.19;;;4.06;100.00
72677;BME280;60755;51.374;10.662;2023-04-08T06:09:59;97694.97;;;4.20;100.00
72677;BME280;60755;51.374;10.662;2023-04-08T06:12:26;97697.56;;;4.20;100.00
72677;BME280;60755;51.374;10.662;2023-04-08T06:14:54;97699.84;;;3.93;100.00
72677;BME280;60755;51.374;10.662;2023-04-08T06:17:23;97696.34;;;3.86;100.00
72677;BME280;60755;51.374;10.662;2023-04-08T06:19:50;97704.50;;;3.98;100.00
72677;BME280;60755;51.374;10.662;2023-04-08T06:22:17;97710.59;;;4.05;100.00
72677;BME280;60755;51.374;10.662;2023-04-08T06:24:46;97706.34;;;4.19;100.00
72677;BME280;60755;51.374;10.662;2023-04-08T06:27:13;97711.16;;;4.37;100.00
72677;BME280;60755;51.374;10.662;2023-04-08T06:29:40;97716.19;;;4.24;100.00
72677;BME280;60755;51.374;10.662;2023-04-08T06:32:08;97731.00;;;4.23;100.00
72677;BME280;60755;51.374;10.662;2023-04-08T06:34:37;97724.09;;;4.30;100.00
72677;BME280;60755;51.374;10.662;2023-04-08T06:37:04;97730.00;;;4.39;100.00
72677;BME280;60755;51.374;10.662;2023-04-08T06:39:32;97728.47;;;4.44;100.00
72677;BME280;60755;51.374;10.662;2023-04-08T06:41:59;97720.91;;;4.49;100.00
72677;BME280;60755;51.374;10.662;2023-04-08T06:44:52;97725.84;;;4.44;100.00
72677;BME280;60755;51.374;10.662;2023-04-08T06:47:20;97726.47;;;4.46;100.00
72677;BME280;60755;51.374;10.662;2023-04-08T06:49:48;97729.69;;;4.48;100.00
72677;BME280;60755;51.374;10.662;2023-04-08T06:52:16;97735.66;;;4.42;100.00
72677;BME280;60755;51.374;10.662;2023-04-08T06:54:43;97743.84;;;4.61;100.00
72677;BME280;60755;51.374;10.662;2023-04-08T06:57:11;97745.31;;;4.48;100.00
72677;BME280;60755;51.374;10.662;2023-04-08T06:59:38;97741.84;;;4.41;100.00
72677;BME280;60755;51.374;10.662;2023-04-08T07:02:05;97742.47;;;4.43;100.00
72677;BME280;60755;51.374;10.662;2023-04-08T07:04:33;97747.34;;;4.89;100.00
72677;BME280;60755;51.374;10.662;2023-04-08T07:07:01;97743.25;;;4.80;100.00
72677;BME280;60755;51.374;10.662;2023-04-08T07:09:29;97747.19;;;5.19;99.51
72677;BME280;60755;51.374;10.662;2023-04-08T07:11:56;97753.72;;;5.08;99.31
72677;BME280;60755;51.374;10.662;2023-04-08T07:14:24;97756.41;;;5.15;98.79
72677;BME280;60755;51.374;10.662;2023-04-08T07:16:51;97758.63;;;4.96;99.54
72677;BME280;60755;51.374;10.662;2023-04-08T07:19:19;97765.91;;;4.65;100.00
72677;BME280;60755;51.374;10.662;2023-04-08T07:21:47;97761.75;;;5.07;100.00
72677;BME280;60755;51.374;10.662;2023-04-08T07:24:16;97777.91;;;5.02;99.94
72677;BME280;60755;51.374;10.662;2023-04-08T07:26:43;97779.44;;;4.96;100.00
72677;BME280;60755;51.374;10.662;2023-04-08T07:29:10;97784.09;;;4.80;99.96
72677;BME280;60755;51.374;10.662;2023-04-08T07:31:37;97782.56;;;4.85;100.00
72677;BME280;60755;51.374;10.662;2023-04-08T07:34:05;97769.03;;;4.96;100.00
72677;BME280;60755;51.374;10.662;2023-04-08T07:36:32;97773.13;;;5.27;99.60
72677;BME280;60755;51.374;10.662;2023-04-08T07:38:59;97765.97;;;5.36;99.38
72677;BME280;60755;51.374;10.662;2023-04-08T07:41:28;97777.19;;;5.08;100.00
72677;BME280;60755;51.374;10.662;2023-04-08T07:43:55;97779.34;;;5.26;98.65
72677;BME280;60755;51.374;10.662;2023-04-08T07:46:22;97778.22;;;4.92;100.00
72677;BME280;60755;51.374;10.662;2023-04-08T07:48:50;97779.19;;;4.70;100.00
72677;BME280;60755;51.374;10.662;2023-04-08T07:51:17;97786.97;;;4.85;100.00
72677;BME280;60755;51.374;10.662;2023-04-08T07:53:45;97790.63;;;4.90;100.00
72677;BME280;60755;51.374;10.662;2023-04-08T07:56:13;97797.97;;;4.87;100.00
72677;BME280;60755;51.374;10.662;2023-04-08T07:58:41;97798.47;;;4.75;100.00
72677;BME280;60755;51.374;10.662;2023-04-08T08:01:16;97796.50;;;4.77;100.00
72677;BME280;60755;51.374;10.662;2023-04-08T08:03:44;97795.03;;;4.90;100.00
72677;BME280;60755;51.374;10.662;2023-04-08T08:06:12;97801.59;;;4.86;100.00
72677;BME280;60755;51.374;10.662;2023-04-08T08:08:39;97800.28;;;4.96;100.00
72677;BME280;60755;51.374;10.662;2023-04-08T08:11:07;97799.81;;;5.08;100.00
72677;BME280;60755;51.374;10.662;2023-04-08T08:13:34;97803.81;;;4.89;100.00
72677;BME280;60755;51.374;10.662;2023-04-08T08:16:02;97808.81;;;4.69;100.00
72677;BME280;60755;51.374;10.662;2023-04-08T08:18:33;97814.72;;;5.14;100.00
72677;BME280;60755;51.374;10.662;2023-04-08T08:21:01;97813.41;;;4.88;100.00
72677;BME280;60755;51.374;10.662;2023-04-08T08:23:29;97822.19;;;4.66;100.00
72677;BME280;60755;51.374;10.662;2023-04-08T08:26:00;97814.19;;;5.03;100.00
72677;BME280;60755;51.374;10.662;2023-04-08T08:28:27;97839.84;;;5.21;100.00
72677;BME280;60755;51.374;10.662;2023-04-08T08:30:55;97829.56;;;5.20;100.00
72677;BME280;60755;51.374;10.662;2023-04-08T08:33:23;97829.97;;;5.17;100.00
72677;BME280;60755;51.374;10.662;2023-04-08T08:35:51;97829.69;;;5.12;100.00
72677;BME280;60755;51.374;10.662;2023-04-08T08:38:18;97823.88;;;5.10;100.00
72677;BME280;60755;51.374;10.662;2023-04-08T08:40:46;97831.50;;;5.11;100.00
72677;BME280;60755;51.374;10.662;2023-04-08T08:43:13;97834.22;;;5.03;100.00
72677;BME280;60755;51.374;10.662;2023-04-08T08:45:41;97842.25;;;5.23;100.00
72677;BME280;60755;51.374;10.662;2023-04-08T08:48:08;97836.28;;;5.08;100.00
72677;BME280;60755;51.374;10.662;2023-04-08T08:50:36;97830.06;;;5.09;100.00
72677;BME280;60755;51.374;10.662;2023-04-08T08:53:04;97831.53;;;4.96;100.00
72677;BME280;60755;51.374;10.662;2023-04-08T08:55:31;97834.19;;;5.39;100.00
72677;BME280;60755;51.374;10.662;2023-04-08T08:57:59;97833.59;;;5.44;100.00
72677;BME280;60755;51.374;10.662;2023-04-08T09:00:31;97835.19;;;5.38;100.00
72677;BME280;60755;51.374;10.662;2023-04-08T09:03:13;97836.03;;;5.45;100.00
72677;BME280;60755;51.374;10.662;2023-04-08T09:05:53;97830.19;;;5.65;100.00
72677;BME280;60755;51.374;10.662;2023-04-08T09:08:28;97838.94;;;5.57;99.84
72677;BME280;60755;51.374;10.662;2023-04-08T09:11:09;97845.53;;;5.31;100.00
72677;BME280;60755;51.374;10.662;2023-04-08T09:13:37;97840.16;;;5.61;100.00
72677;BME280;60755;51.374;10.662;2023-04-08T09:16:06;97837.53;;;5.82;98.11
72677;BME280;60755;51.374;10.662;2023-04-08T09:18:35;97838.09;;;5.99;96.80
72677;BME280;60755;51.374;10.662;2023-04-08T09:21:05;97840.44;;;6.57;95.39
72677;BME280;60755;51.374;10.662;2023-04-08T09:23:37;97841.53;;;6.76;91.88
72677;BME280;60755;51.374;10.662;2023-04-08T09:26:09;97854.25;;;6.92;91.67
72677;BME280;60755;51.374;10.662;2023-04-08T09:28:37;97852.50;;;6.64;95.58
72677;BME280;60755;51.374;10.662;2023-04-08T09:31:19;97862.75;;;7.20;90.06
72677;BME280;60755;51.374;10.662;2023-04-08T09:33:46;97862.44;;;6.76;92.22
72677;BME280;60755;51.374;10.662;2023-04-08T09:36:15;97849.56;;;6.81;91.15
72677;BME280;60755;51.374;10.662;2023-04-08T09:38:43;97849.09;;;6.64;92.63
72677;BME280;60755;51.374;10.662;2023-04-08T09:41:13;97845.47;;;7.19;91.28
72677;BME280;60755;51.374;10.662;2023-04-08T09:43:42;97844.91;;;8.10;87.31
72677;BME280;60755;51.374;10.662;2023-04-08T09:46:14;97851.94;;;8.43;82.87
72677;BME280;60755;51.374;10.662;2023-04-08T09:48:48;97851.56;;;8.19;86.21
72677;BME280;60755;51.374;10.662;2023-04-08T09:51:18;97846.28;;;8.32;83.45
72677;BME280;60755;51.374;10.662;2023-04-08T09:53:55;97864.81;;;8.24;86.67
72677;BME280;60755;51.374;10.662;2023-04-08T09:56:29;97863.44;;;8.02;84.58
72677;BME280;60755;51.374;10.662;2023-04-08T09:59:06;97866.84;;;8.22;85.54
72677;BME280;60755;51.374;10.662;2023-04-08T10:01:37;97862.03;;;9.35;80.25
72677;BME280;60755;51.374;10.662;2023-04-08T10:04:09;97878.97;;;9.39;80.78
72677;BME280;60755;51.374;10.662;2023-04-08T10:06:40;97872.81;;;9.52;78.84
72677;BME280;60755;51.374;10.662;2023-04-08T10:09:07;97878.41;;;8.86;79.90
72677;BME280;60755;51.374;10.662;2023-04-08T10:11:36;97877.75;;;8.06;81.31
72677;BME280;60755;51.374;10.662;2023-04-08T10:14:03;97886.75;;;8.50;83.44
72677;BME280;60755;51.374;10.662;2023-04-08T10:16:30;97888.41;;;8.11;83.73
72677;BME280;60755;51.374;10.662;2023-04-08T10:18:57;97889.00;;;8.39;83.23
72677;BME280;60755;51.374;10.662;2023-04-08T10:21:32;97875.16;;;7.86;85.35
72677;BME280;60755;51.374;10.662;2023-04-08T10:24:02;97879.09;;;9.13;82.50
72677;BME280;60755;51.374;10.662;2023-04-08T10:26:37;97863.38;;;9.06;81.62
72677;BME280;60755;51.374;10.662;2023-04-08T10:29:32;97870.72;;;9.29;81.91
72677;BME280;60755;51.374;10.662;2023-04-08T10:31:59;97882.81;;;9.93;78.16
72677;BME280;60755;51.374;10.662;2023-04-08T10:34:27;97886.78;;;9.08;77.97
72677;BME280;60755;51.374;10.662;2023-04-08T10:36:56;97890.28;;;9.33;79.97
72677;BME280;60755;51.374;10.662;2023-04-08T10:39:29;97883.34;;;9.45;79.50
72677;BME280;60755;51.374;10.662;2023-04-08T10:41:56;97879.41;;;8.91;80.05
72677;BME280;60755;51.374;10.662;2023-04-08T10:44:24;97885.78;;;8.51;83.90
72677;BME280;60755;51.374;10.662;2023-04-08T10:46:53;97876.09;;;9.47;79.65
72677;BME280;60755;51.374;10.662;2023-04-08T10:49:20;97875.16;;;9.35;78.97
72677;BME280;60755;51.374;10.662;2023-04-08T10:51:48;97879.88;;;9.20;81.14
72677;BME280;60755;51.374;10.662;2023-04-08T10:54:16;97874.19;;;8.85;81.02
72677;BME280;60755;51.374;10.662;2023-04-08T10:56:46;97872.97;;;8.81;80.78
72677;BME280;60755;51.374;10.662;2023-04-08T10:59:15;97872.31;;;8.99;81.66
72677;BME280;60755;51.374;10.662;2023-04-08T11:01:44;97866.41;;;9.10;79.46
72677;BME280;60755;51.374;10.662;2023-04-08T11:04:15;97873.38;;;9.61;80.58
72677;BME280;60755;51.374;10.662;2023-04-08T11:06:44;97871.13;;;9.64;80.66
72677;BME280;60755;51.374;10.662;2023-04-08T11:09:12;97886.19;;;9.44;78.12
72677;BME280;60755;51.374;10.662;2023-04-08T11:11:41;97889.09;;;9.61;78.00
72677;BME280;60755;51.374;10.662;2023-04-08T11:14:10;97893.00;;;9.51;78.62
72677;BME280;60755;51.374;10.662;2023-04-08T11:16:37;97894.78;;;9.26;78.46
72677;BME280;60755;51.374;10.662;2023-04-08T11:19:05;97895.81;;;8.67;81.67
72677;BME280;60755;51.374;10.662;2023-04-08T11:21:35;97897.38;;;9.33;79.24
72677;BME280;60755;51.374;10.662;2023-04-08T11:24:06;97895.00;;;9.56;77.48
72677;BME280;60755;51.374;10.662;2023-04-08T11:26:35;97891.78;;;9.22;78.49
72677;BME280;60755;51.374;10.662;2023-04-08T11:29:12;97899.03;;;9.59;78.03
72677;BME280;60755;51.374;10.662;2023-04-08T11:31:41;97899.50;;;9.49;78.69
72677;BME280;60755;51.374;10.662;2023-04-08T11:34:09;97903.31;;;9.15;79.30
72677;BME280;60755;51.374;10.662;2023-04-08T11:36:39;97904.22;;;9.34;79.07
72677;BME280;60755;51.374;10.662;2023-04-08T11:39:08;97897.41;;;9.58;79.14
72677;BME280;60755;51.374;10.662;2023-04-08T11:41:37;97895.50;;;9.40;77.75
72677;BME280;60755;51.374;10.662;2023-04-08T11:44:05;97895.69;;;9.07;80.16
72677;BME280;60755;51.374;10.662;2023-04-08T11:46:34;97904.25;;;8.82;80.07
72677;BME280;60755;51.374;10.662;2023-04-08T11:49:03;97905.09;;;8.63;80.37
72677;BME280;60755;51.374;10.662;2023-04-08T11:51:31;97902.69;;;8.55;82.73
72677;BME280;60755;51.374;10.662;2023-04-08T11:54:00;97907.31;;;8.33;84.49
72677;BME280;60755;51.374;10.662;2023-04-08T11:56:30;97905.53;;;8.40;84.02
72677;BME280;60755;51.374;10.662;2023-04-08T11:58:58;97904.72;;;8.26;83.72
72677;BME280;60755;51.374;10.662;2023-04-08T12:01:26;97909.75;;;8.41;84.98
72677;BME280;60755;51.374;10.662;2023-04-08T12:03:59;97910.16;;;8.51;83.53
72677;BME280;60755;51.374;10.662;2023-04-08T12:06:28;97909.16;;;8.19;84.56
72677;BME280;60755;51.374;10.662;2023-04-08T12:08:56;97911.56;;;8.27;86.19
72677;BME280;60755;51.374;10.662;2023-04-08T12:11:24;97909.16;;;8.39;85.68
72677;BME280;60755;51.374;10.662;2023-04-08T12:13:51;97908.56;;;8.50;85.39
72677;BME280;60755;51.374;10.662;2023-04-08T12:16:19;97916.25;;;8.96;83.02
72677;BME280;60755;51.374;10.662;2023-04-08T12:18:46;97924.19;;;8.83;82.98
72677;BME280;60755;51.374;10.662;2023-04-08T12:21:15;97923.19;;;8.84;82.40
72677;BME280;60755;51.374;10.662;2023-04-08T12:23:42;97921.16;;;8.80;82.85
72677;BME280;60755;51.374;10.662;2023-04-08T12:26:10;97932.31;;;8.22;84.72
72677;BME280;60755;51.374;10.662;2023-04-08T12:28:38;97932.91;;;8.18;84.90
72677;BME280;60755;51.374;10.662;2023-04-08T12:31:05;97941.38;;;8.46;84.77
72677;BME280;60755;51.374;10.662;2023-04-08T12:33:32;97934.13;;;8.55;83.39
72677;BME280;60755;51.374;10.662;2023-04-08T12:35:59;97946.47;;;9.06;81.32
72677;BME280;60755;51.374;10.662;2023-04-08T12:38:28;97933.13;;;9.14;80.37
72677;BME280;60755;51.374;10.662;2023-04-08T12:40:55;97932.91;;;9.22;80.59
72677;BME280;60755;51.374;10.662;2023-04-08T12:43:23;97943.22;;;9.17;79.81
72677;BME280;60755;51.374;10.662;2023-04-08T12:45:50;97942.31;;;8.91;79.27
72677;BME280;60755;51.374;10.662;2023-04-08T12:48:17;97935.91;;;8.67;79.89
72677;BME280;60755;51.374;10.662;2023-04-08T12:50:45;97939.28;;;8.81;79.76
72677;BME280;60755;51.374;10.662;2023-04-08T12:53:13;97938.47;;;8.87;79.37
72677;BME280;60755;51.374;10.662;2023-04-08T12:55:42;97931.19;;;8.96;76.72
72677;BME280;60755;51.374;10.662;2023-04-08T12:58:09;97933.38;;;9.06;77.15
72677;BME280;60755;51.374;10.662;2023-04-08T13:00:37;97924.03;;;9.23;76.84
72677;BME280;60755;51.374;10.662;2023-04-08T13:03:05;97936.84;;;9.00;77.42